Time;durP1;ratioP1;P1;durP2;ratioP2;P2;SDS_P1;SDS_P2;PMS_P1;PMS_P2;Temp;Humidity;BMP_temperature;BMP_pressure;BME280_temperature;BME280_humidity;BME280_pressure;Samples;Min_cycle;Max_cycle;Signal;HPM_P1;HPM_P2
2023/08/23 00:01:20;;;;;;;55.80;12.60;;;18.80;1.00;;;;;;5028383;28;20427;-78
2023/08/23 00:04:26;;;;;;;53.10;13.10;;;18.80;1.00;;;;;;5034389;28;20525;-78
2023/08/23 00:07:13;;;;;;;48.33;13.00;;;18.80;1.00;;;;;;5025424;28;21006;-79
2023/08/23 00:10:13;;;;;;;49.00;11.17;;;18.80;1.00;;;;;;5018517;28;21142;-79
2023/08/23 00:12:39;;;;;;;61.10;13.73;;;18.70;1.00;;;;;;5032542;28;20461;-79
2023/08/23 00:15:14;;;;;;;46.80;12.83;;;18.70;1.00;;;;;;5035675;28;20423;-79
2023/08/23 00:18:19;;;;;;;46.23;13.10;;;18.70;1.00;;;;;;5036407;28;20577;-79
2023/08/23 00:20:45;;;;;;;48.53;12.60;;;18.60;1.00;;;;;;5036870;28;20424;-79
2023/08/23 00:24:01;;;;;;;48.33;13.20;;;18.60;1.00;;;;;;5027899;28;20404;-79
2023/08/23 00:26:55;;;;;;;47.70;13.13;;;18.50;1.00;;;;;;5017073;28;20216;-79
2023/08/23 00:29:32;;;;;;;51.37;12.80;;;18.50;1.00;;;;;;5024148;28;20418;-79
2023/08/23 00:31:58;;;;;;;49.00;13.53;;;18.40;1.00;;;;;;5034287;28;20422;-79
2023/08/23 00:34:32;;;;;;;49.17;14.50;;;18.40;1.00;;;;;;5033027;28;20433;-79
2023/08/23 00:37:02;;;;;;;49.83;14.53;;;18.30;1.00;;;;;;5019511;28;20263;-79
2023/08/23 00:39:38;;;;;;;57.90;15.30;;;18.30;1.00;;;;;;5026802;28;20501;-78
2023/08/23 00:42:20;;;;;;;58.43;15.30;;;18.40;1.00;;;;;;5023210;28;20924;-78
2023/08/23 00:44:50;;;;;;;59.33;14.00;;;18.40;1.00;;;;;;5018299;28;20801;-78
2023/08/23 00:47:20;;;;;;;55.00;14.33;;;18.40;1.00;;;;;;5033546;28;20422;-79
2023/08/23 00:49:57;;;;;;;53.00;14.60;;;18.40;1.00;;;;;;5025599;28;20438;-78
2023/08/23 00:52:38;;;;;;;55.10;14.40;;;18.40;1.00;;;;;;5036284;28;20476;-79
2023/08/23 00:55:04;;;;;;;52.40;14.50;;;18.40;1.00;;;;;;5035576;28;20469;-79
2023/08/23 00:58:08;;;;;;;58.10;15.17;;;18.30;1.00;;;;;;5024435;28;20446;-79
2023/08/23 01:00:44;;;;;;;52.10;15.00;;;18.30;1.00;;;;;;5033412;28;20433;-79
2023/08/23 01:03:10;;;;;;;52.60;14.73;;;18.20;1.00;;;;;;5035972;28;20396;-79
2023/08/23 01:06:17;;;;;;;62.53;14.37;;;18.20;1.00;;;;;;5034914;28;20465;-79
2023/08/23 01:09:08;;;;;;;55.07;15.07;;;18.20;1.00;;;;;;5016398;28;20681;-78
2023/08/23 01:11:50;;;;;;;58.30;15.00;;;18.20;1.00;;;;;;5016132;28;20440;-78
2023/08/23 01:14:31;;;;;;;48.87;14.50;;;18.20;1.00;;;;;;5031102;28;20531;-78
2023/08/23 01:17:43;;;;;;;47.87;14.33;;;18.10;1.00;;;;;;5030835;28;20921;-78
2023/08/23 01:20:15;;;;;;;50.00;14.80;;;18.10;1.00;;;;;;5035686;28;20419;-78
2023/08/23 01:23:02;;;;;;;52.07;15.37;;;18.00;1.00;;;;;;5022649;28;20418;-79
2023/08/23 01:25:52;;;;;;;52.63;15.03;;;18.00;1.00;;;;;;5034695;28;20394;-79
2023/08/23 01:28:26;;;;;;;53.10;15.10;;;18.00;1.00;;;;;;5015746;28;20415;-78
2023/08/23 01:31:15;;;;;;;51.23;15.00;;;18.00;1.00;;;;;;5027178;28;20802;-78
2023/08/23 01:34:15;;;;;;;49.03;15.27;;;17.90;1.00;;;;;;5030813;28;20490;-78
2023/08/23 01:37:14;;;;;;;50.10;15.00;;;17.90;1.00;;;;;;4993865;28;20407;-78
2023/08/23 01:40:14;;;;;;;54.00;15.57;;;18.00;1.00;;;;;;4997654;28;20398;-79
2023/08/23 01:43:08;;;;;;;50.20;14.73;;;18.00;1.00;;;;;;5003601;28;20482;-79
2023/08/23 01:49:02;;;;;;;52.70;14.87;;;17.90;1.00;;;;;;5005819;28;21052;-79
2023/08/23 01:51:32;;;;;;;63.27;15.40;;;17.90;1.00;;;;;;5002562;28;20993;-79
2023/08/23 01:54:14;;;;;;;58.83;15.03;;;17.90;1.00;;;;;;5009404;28;20473;-79
2023/08/23 01:56:44;;;;;;;54.30;15.47;;;17.90;1.00;;;;;;5000040;28;20461;-79
2023/08/23 01:59:38;;;;;;;51.60;14.60;;;17.90;1.00;;;;;;5000177;28;20509;-78
2023/08/23 02:02:38;;;;;;;50.90;15.80;;;17.90;1.00;;;;;;4984036;28;20522;-78
2023/08/23 02:05:14;;;;;;;53.20;14.70;;;17.80;1.00;;;;;;4983275;28;20501;-78
2023/08/23 02:08:08;;;;;;;54.60;14.13;;;17.80;1.00;;;;;;5001032;28;20448;-78
2023/08/23 02:10:33;;;;;;;64.03;14.23;;;17.80;1.00;;;;;;5001550;28;20435;-78
2023/08/23 02:13:08;;;;;;;51.57;15.17;;;17.80;1.00;;;;;;5010159;28;20523;-78
2023/08/23 02:15:38;;;;;;;53.80;15.80;;;17.80;1.00;;;;;;5032907;28;20593;-79
2023/08/23 02:18:04;;;;;;;57.47;15.97;;;17.80;1.00;;;;;;5031054;28;20411;-78
2023/08/23 02:20:55;;;;;;;58.33;14.97;;;17.80;1.00;;;;;;5019928;28;20423;-78
2023/08/23 02:23:32;;;;;;;52.87;14.60;;;17.80;1.00;;;;;;5033416;28;20925;-79
2023/08/23 02:26:15;;;;;;;49.80;14.03;;;17.80;1.00;;;;;;5022383;28;20888;-79
2023/08/23 02:29:02;;;;;;;55.97;14.80;;;17.80;1.00;;;;;;5028932;28;20422;-79
2023/08/23 02:31:44;;;;;;;50.27;14.43;;;17.80;1.00;;;;;;5034757;28;20433;-80
2023/08/23 02:34:14;;;;;;;53.13;14.73;;;17.80;1.00;;;;;;5025088;28;20465;-79
2023/08/23 02:36:56;;;;;;;53.47;14.57;;;17.70;1.00;;;;;;5028680;28;20966;-79
2023/08/23 02:39:27;;;;;;;55.20;13.83;;;17.70;1.00;;;;;;5024474;28;20937;-79
2023/08/23 02:41:53;;;;;;;52.37;15.13;;;17.60;1.00;;;;;;5034137;28;20820;-79
2023/08/23 02:44:18;;;;;;;52.40;14.50;;;17.60;1.00;;;;;;5032420;28;20408;-79
2023/08/23 02:47:34;;;;;;;50.27;14.37;;;17.50;1.00;;;;;;5032890;28;20213;-79
2023/08/23 02:50:00;;;;;;;55.13;15.33;;;17.50;1.00;;;;;;5022187;28;20191;-80
2023/08/23 02:52:29;;;;;;;51.40;14.83;;;17.40;1.00;;;;;;5022090;28;20462;-79
2023/08/23 02:54:56;;;;;;;50.57;14.80;;;17.40;1.00;;;;;;5031007;28;20187;-79
2023/08/23 02:57:32;;;;;;;56.67;14.80;;;17.40;1.00;;;;;;5024131;28;20385;-79
2023/08/23 03:00:14;;;;;;;57.73;15.80;;;17.40;1.00;;;;;;5027658;28;20608;-79
2023/08/23 03:02:44;;;;;;;51.70;14.23;;;17.40;1.00;;;;;;5012923;28;20397;-79
2023/08/23 03:05:38;;;;;;;52.40;14.67;;;17.30;1.00;;;;;;5014217;28;20493;-78
2023/08/23 03:08:08;;;;;;;56.30;15.40;;;17.30;1.00;;;;;;5025533;28;20444;-79
2023/08/23 03:13:56;;;;;;;51.63;15.27;;;17.20;1.00;;;;;;5026569;28;20471;-79
2023/08/23 03:16:44;;;;;;;55.00;15.63;;;17.10;1.00;;;;;;5027327;28;20425;-79
2023/08/23 03:19:14;;;;;;;57.13;16.40;;;17.10;1.00;;;;;;5029369;28;20391;-79
2023/08/23 03:21:44;;;;;;;50.97;14.67;;;17.10;1.00;;;;;;5030424;28;20783;-79
2023/08/23 03:24:38;;;;;;;54.50;16.43;;;17.00;1.00;;;;;;5016489;28;20928;-79
2023/08/23 03:27:32;;;;;;;57.47;15.40;;;17.00;1.00;;;;;;5016936;28;20419;-79
2023/08/23 03:30:02;;;;;;;54.73;14.70;;;17.00;1.00;;;;;;5013753;28;20503;-79
2023/08/23 03:32:28;;;;;;;50.50;15.17;;;16.90;1.00;;;;;;5025516;28;20435;-79
2023/08/23 03:34:56;;;;;;;60.70;16.17;;;16.90;1.00;;;;;;5021835;28;20414;-79
2023/08/23 03:37:22;;;;;;;58.73;14.53;;;16.90;1.00;;;;;;5023959;28;20207;-79
2023/08/23 03:39:50;;;;;;;56.40;15.90;;;16.90;1.00;;;;;;5021586;28;20524;-79
2023/08/23 03:42:32;;;;;;;54.93;16.53;;;16.90;1.00;;;;;;5031558;28;20685;-80
2023/08/23 03:45:08;;;;;;;53.90;16.70;;;16.90;1.00;;;;;;5018510;28;20890;-80
2023/08/23 03:47:35;;;;;;;56.83;16.47;;;16.90;1.00;;;;;;5027137;28;20400;-80
2023/08/23 03:50:01;;;;;;;52.07;15.80;;;16.90;1.00;;;;;;5022011;28;20483;-80
2023/08/23 03:52:26;;;;;;;60.00;16.47;;;16.90;1.00;;;;;;5023104;28;21036;-80
2023/08/23 03:54:52;;;;;;;57.07;16.10;;;16.80;1.00;;;;;;5012623;28;20201;-79
2023/08/23 03:57:18;;;;;;;51.93;16.70;;;16.80;1.00;;;;;;5019825;28;20588;-79
2023/08/23 03:59:44;;;;;;;58.70;16.67;;;16.80;1.00;;;;;;5029388;28;20462;-79
2023/08/23 04:02:10;;;;;;;51.47;15.87;;;16.80;1.00;;;;;;5022775;28;20668;-79
2023/08/23 04:04:38;;;;;;;58.60;17.37;;;16.70;1.00;;;;;;5030282;28;20407;-79
2023/08/23 04:07:20;;;;;;;50.73;16.73;;;16.70;1.00;;;;;;5022015;28;20187;-79
2023/08/23 04:10:20;;;;;;;53.83;17.07;;;16.70;1.00;;;;;;5020953;28;20442;-80
2023/08/23 04:13:19;;;;;;;53.77;16.03;;;16.70;1.00;;;;;;5026413;28;20508;-80
2023/08/23 04:15:46;;;;;;;55.87;16.20;;;16.60;1.00;;;;;;5027496;28;20417;-80
2023/08/23 04:18:38;;;;;;;64.27;16.90;;;16.60;1.00;;;;;;5019596;28;20421;-80
2023/08/23 04:21:20;;;;;;;59.53;17.50;;;16.50;1.00;;;;;;5021223;28;20444;-80
2023/08/23 04:23:52;;;;;;;61.37;17.00;;;16.50;1.00;;;;;;5027277;28;20937;-80
2023/08/23 04:26:38;;;;;;;60.63;17.40;;;16.60;1.00;;;;;;5022915;28;20866;-79
2023/08/23 04:29:14;;;;;;;53.90;16.97;;;16.50;1.00;;;;;;5024364;28;21107;-80
2023/08/23 04:31:44;;;;;;;59.97;17.00;;;16.50;1.00;;;;;;5020022;28;20399;-80
2023/08/23 04:34:20;;;;;;;56.33;17.17;;;16.50;1.00;;;;;;5026110;28;21034;-80
2023/08/23 04:37:20;;;;;;;51.67;16.60;;;16.50;1.00;;;;;;5036306;28;20400;-80
2023/08/23 04:40:08;;;;;;;51.93;16.23;;;16.50;1.00;;;;;;5036769;28;20411;-80
2023/08/23 04:43:25;;;;;;;52.20;17.10;;;16.50;1.00;;;;;;5016574;28;20415;-80
2023/08/23 04:45:56;;;;;;;51.23;17.10;;;16.60;1.00;;;;;;5016967;28;20460;-80
2023/08/23 04:48:32;;;;;;;63.10;17.30;;;16.50;1.00;;;;;;5020728;28;20471;-80
2023/08/23 04:51:09;;;;;;;58.33;17.37;;;16.50;1.00;;;;;;5036423;28;20465;-80
2023/08/23 04:54:14;;;;;;;57.10;17.47;;;16.50;1.00;;;;;;5028308;28;20464;-80
2023/08/23 04:56:44;;;;;;;62.73;17.30;;;16.50;1.00;;;;;;5023245;28;20414;-80
2023/08/23 04:59:14;;;;;;;55.00;17.40;;;16.60;1.00;;;;;;5033665;28;20781;-80
2023/08/23 05:02:02;;;;;;;52.13;16.70;;;16.60;1.00;;;;;;5029703;28;20375;-80
2023/08/23 05:05:13;;;;;;;59.03;16.83;;;16.60;1.00;;;;;;5028089;28;20473;-80
2023/08/23 05:07:40;;;;;;;54.87;17.60;;;16.50;1.00;;;;;;5029075;28;20388;-80
2023/08/23 05:10:07;;;;;;;55.43;17.40;;;16.60;1.00;;;;;;5023673;28;20429;-80
2023/08/23 05:12:44;;;;;;;58.70;18.37;;;16.50;1.00;;;;;;5034269;28;20847;-80
2023/08/23 05:15:26;;;;;;;57.77;16.90;;;16.50;1.00;;;;;;5026294;28;20440;-80
2023/08/23 05:18:26;;;;;;;58.63;17.67;;;16.70;1.00;;;;;;5030570;28;20410;-80
2023/08/23 05:21:14;;;;;;;58.90;17.80;;;16.70;1.00;;;;;;5028997;28;20417;-80
2023/08/23 05:23:40;;;;;;;56.10;18.33;;;16.70;1.00;;;;;;5033264;28;20439;-80
2023/08/23 05:26:05;;;;;;;59.00;17.17;;;16.70;1.00;;;;;;5032157;28;20527;-74
2023/08/23 05:28:32;;;;;;;54.53;17.20;;;16.80;1.00;;;;;;5031493;28;20483;-73
2023/08/23 05:31:02;;;;;;;54.63;16.07;;;16.90;1.00;;;;;;5023081;28;20221;-73
2023/08/23 05:33:28;;;;;;;52.80;17.10;;;16.90;1.00;;;;;;5024046;28;20433;-74
2023/08/23 05:35:54;;;;;;;51.70;17.40;;;16.80;1.00;;;;;;5030253;28;20425;-73
2023/08/23 05:38:32;;;;;;;54.57;17.30;;;16.90;1.00;;;;;;5032739;28;20398;-73
2023/08/23 05:41:02;;;;;;;57.43;16.90;;;17.00;1.00;;;;;;5023452;28;20425;-78
2023/08/23 05:43:38;;;;;;;54.53;16.60;;;17.10;1.00;;;;;;5023564;28;20842;-78
2023/08/23 05:46:08;;;;;;;62.60;16.80;;;17.20;1.00;;;;;;5025153;28;20789;-78
2023/08/23 05:49:08;;;;;;;56.70;17.83;;;17.20;1.00;;;;;;5031232;28;20932;-79
2023/08/23 05:51:35;;;;;;;48.87;16.00;;;17.20;1.00;;;;;;5025092;28;20433;-79
2023/08/23 05:54:08;;;;;;;56.27;18.30;;;17.30;1.00;;;;;;5021796;28;20461;-79
2023/08/23 05:56:34;;;;;;;52.93;16.30;;;17.30;1.00;;;;;;5026789;28;20749;-74
2023/08/23 05:59:00;;;;;;;52.00;17.53;;;17.50;1.00;;;;;;5023204;28;20436;-73
2023/08/23 06:01:32;;;;;;;53.10;16.60;;;17.50;1.00;;;;;;5019735;28;20463;-73
2023/08/23 06:03:58;;;;;;;53.63;16.77;;;17.70;1.00;;;;;;5034285;28;20437;-73
2023/08/23 06:06:24;;;;;;;57.63;15.60;;;17.80;1.00;;;;;;5033509;28;20426;-73
2023/08/23 06:08:50;;;;;;;56.10;16.20;;;17.80;1.00;;;;;;5030435;28;20429;-73
2023/08/23 06:11:16;;;;;;;56.53;16.13;;;17.90;1.00;;;;;;5029849;28;20184;-74
2023/08/23 06:13:42;;;;;;;55.77;15.80;;;18.10;1.00;;;;;;5034614;28;20934;-74
2023/08/23 06:16:09;;;;;;;55.40;15.87;;;18.10;1.00;;;;;;5032994;28;20609;-74
2023/08/23 06:18:35;;;;;;;53.27;16.30;;;18.30;1.00;;;;;;5027837;28;20407;-74
2023/08/23 06:21:00;;;;;;;50.00;14.57;;;18.40;1.00;;;;;;5025802;28;20505;-74
2023/08/23 06:23:32;;;;;;;52.20;15.10;;;18.60;1.00;;;;;;5022369;28;20518;-74
2023/08/23 06:25:59;;;;;;;48.87;14.67;;;18.70;1.00;;;;;;5022578;28;20184;-74
2023/08/23 06:28:25;;;;;;;48.70;15.00;;;18.80;1.00;;;;;;5012653;28;20427;-74
2023/08/23 06:30:50;;;;;;;49.17;14.13;;;19.00;1.00;;;;;;5020338;28;20423;-74
2023/08/23 06:33:16;;;;;;;56.50;13.90;;;19.10;1.00;;;;;;5025938;28;20275;-74
2023/08/23 06:35:42;;;;;;;50.47;14.20;;;19.20;1.00;;;;;;5026191;28;20184;-74
2023/08/23 06:38:08;;;;;;;60.07;14.43;;;19.40;1.00;;;;;;5024431;28;20168;-74
2023/08/23 06:40:56;;;;;;;53.47;14.00;;;19.50;1.00;;;;;;5021266;28;20229;-79
2023/08/23 06:43:38;;;;;;;56.03;14.77;;;19.70;1.00;;;;;;5020369;28;20404;-79
2023/08/23 06:46:20;;;;;;;58.43;15.03;;;19.80;1.00;;;;;;5030094;28;20459;-79
2023/08/23 06:49:20;;;;;;;51.53;14.53;;;20.00;1.00;;;;;;5014590;28;20774;-80
2023/08/23 06:51:50;;;;;;;47.73;12.57;;;20.10;1.00;;;;;;5027413;28;20482;-79
2023/08/23 06:54:20;;;;;;;43.77;11.80;;;20.20;1.00;;;;;;5021644;28;20951;-79
2023/08/23 06:56:46;;;;;;;47.37;12.43;;;20.40;1.00;;;;;;5027205;28;20459;-74
2023/08/23 06:59:14;;;;;;;47.40;12.60;;;20.50;1.00;;;;;;5029014;28;20526;-74
2023/08/23 07:01:50;;;;;;;43.80;11.43;;;20.70;1.00;;;;;;5027641;28;20405;-74
2023/08/23 07:04:20;;;;;;;54.47;11.47;;;20.90;1.00;;;;;;5025021;28;20748;-80
2023/08/23 07:06:50;;;;;;;43.43;10.60;;;21.00;1.00;;;;;;5021367;28;20926;-80
2023/08/23 07:09:20;;;;;;;49.60;11.23;;;21.10;1.00;;;;;;5031470;28;20436;-80
2023/08/23 07:11:46;;;;;;;47.40;11.17;;;21.30;1.00;;;;;;5026184;28;20436;-80
2023/08/23 07:14:14;;;;;;;47.00;9.63;;;21.40;1.00;;;;;;5032939;28;20469;-79
2023/08/23 07:16:44;;;;;;;49.80;10.77;;;21.50;1.00;;;;;;5033647;28;20173;-79
2023/08/23 07:19:14;;;;;;;43.03;10.07;;;21.70;1.00;;;;;;5032867;28;20423;-79
2023/08/23 07:21:40;;;;;;;47.73;10.00;;;21.80;1.00;;;;;;5024614;28;20498;-79
2023/08/23 07:24:12;;;;;;;41.10;9.00;;;22.00;1.00;;;;;;5023326;28;20933;-79
2023/08/23 07:26:38;;;;;;;52.23;9.73;;;22.10;1.00;;;;;;5017345;28;20184;-80
2023/08/23 07:29:09;;;;;;;50.17;10.50;;;22.00;1.00;;;;;;5022884;28;21019;-80
2023/08/23 07:31:45;;;;;;;51.30;10.30;;;22.10;1.00;;;;;;5023369;28;20189;-80
2023/08/23 07:34:26;;;;;;;45.63;8.93;;;22.30;1.00;;;;;;5020104;28;20440;-80
2023/08/23 07:37:02;;;;;;;44.00;9.13;;;22.40;1.00;;;;;;5032248;28;20415;-81
2023/08/23 07:39:28;;;;;;;49.73;9.90;;;22.70;1.00;;;;;;5022590;28;20508;-80
2023/08/23 07:41:54;;;;;;;41.77;8.47;;;;;;;;;;5025944;28;20478;-80
2023/08/23 07:44:20;;;;;;;48.80;9.30;;;22.80;1.00;;;;;;5020158;28;20189;-80
2023/08/23 07:46:46;;;;;;;43.17;7.63;;;22.90;1.00;;;;;;5022788;28;20420;-80
2023/08/23 07:49:14;;;;;;;46.17;10.10;;;23.00;1.00;;;;;;5025840;28;20516;-80
2023/08/23 07:51:39;;;;;;;41.70;10.13;;;23.10;1.00;;;;;;5028019;28;20704;-80
2023/08/23 07:54:06;;;;;;;44.00;9.50;;;23.10;1.00;;;;;;5022395;28;20489;-80
2023/08/23 07:56:31;;;;;;;41.93;10.30;;;23.30;1.00;;;;;;5024988;28;20175;-80
2023/08/23 07:58:57;;;;;;;43.20;9.57;;;23.40;1.00;;;;;;5012407;28;20780;-80
2023/08/23 08:01:23;;;;;;;42.83;8.43;;;23.40;1.00;;;;;;5012416;28;20176;-80
2023/08/23 08:03:51;;;;;;;46.23;8.73;;;23.50;1.00;;;;;;5020404;28;20239;-80
2023/08/23 08:06:17;;;;;;;40.87;8.90;;;23.60;1.00;;;;;;5024827;28;20304;-80
2023/08/23 08:08:43;;;;;;;42.30;9.50;;;23.70;1.00;;;;;;5021033;28;20418;-80
2023/08/23 08:11:16;;;;;;;41.30;8.73;;;;;;;;;;5033691;28;20761;-80
2023/08/23 08:13:41;;;;;;;44.50;8.73;;;23.80;1.00;;;;;;5036577;28;20514;-79
2023/08/23 08:16:14;;;;;;;39.43;8.40;;;23.80;1.00;;;;;;5023693;28;20438;-79
2023/08/23 08:18:56;;;;;;;42.07;8.10;;;24.00;1.00;;;;;;5032260;28;20204;-80
2023/08/23 08:21:26;;;;;;;37.30;7.57;;;24.00;1.00;;;;;;5017260;28;20388;-81
2023/08/23 08:24:26;;;;;;;42.30;7.50;;;24.10;1.00;;;;;;5018952;28;20438;-80
2023/08/23 08:26:52;;;;;;;48.90;7.80;;;24.10;1.00;;;;;;5032624;28;20480;-79
2023/08/23 08:30:08;;;;;;;36.00;6.63;;;24.30;1.00;;;;;;5032290;28;20952;-80
2023/08/23 08:32:50;;;;;;;78.47;7.10;;;24.40;1.00;;;;;;5030049;28;20655;-79
2023/08/23 08:35:26;;;;;;;37.77;6.97;;;24.50;1.00;;;;;;5023300;28;20513;-80
2023/08/23 08:37:56;;;;;;;35.80;6.60;;;24.60;1.00;;;;;;5030292;28;20468;-80
2023/08/23 08:40:38;;;;;;;39.73;6.83;;;24.60;1.00;;;;;;5023282;28;20981;-80
2023/08/23 08:43:05;;;;;;;37.70;6.20;;;24.80;1.00;;;;;;5033584;28;20455;-82
2023/08/23 08:45:32;;;;;;;43.07;6.23;;;24.80;1.00;;;;;;5019604;28;20420;-81
2023/08/23 08:47:59;;;;;;;37.37;5.30;;;24.90;1.00;;;;;;5029376;28;20833;-83
2023/08/23 08:50:34;;;;;;;42.30;5.60;;;25.10;1.00;;;;;;5028978;28;20925;-82
2023/08/23 08:53:16;;;;;;;36.40;5.33;;;25.10;1.00;;;;;;5015877;28;20451;-81
2023/08/23 08:55:48;;;;;;;37.80;6.27;;;25.10;1.00;;;;;;5034947;28;20757;-82
2023/08/23 08:58:19;;;;;;;41.50;5.50;;;25.30;1.00;;;;;;5018142;28;21017;-82
2023/08/23 09:01:04;;;;;;;44.93;5.03;;;25.40;1.00;;;;;;5028158;28;20963;-79
2023/08/23 09:03:44;;;;;;;50.50;6.53;;;25.60;1.00;;;;;;5031722;28;20443;-80
2023/08/23 09:06:10;;;;;;;51.07;6.10;;;25.70;1.00;;;;;;5031397;28;20425;-81
2023/08/23 09:08:44;;;;;;;39.03;5.03;;;25.80;1.00;;;;;;5032481;28;20446;-80
2023/08/23 09:11:10;;;;;;;38.63;4.87;;;25.80;1.00;;;;;;5031846;28;20666;-80
2023/08/23 09:13:36;;;;;;;45.03;5.43;;;25.80;1.00;;;;;;5026382;28;20496;-82
2023/08/23 09:16:03;;;;;;;34.83;5.30;;;25.90;1.00;;;;;;5035276;28;20200;-83
2023/08/23 09:18:29;;;;;;;35.93;4.80;;;25.90;1.00;;;;;;5034969;28;20203;-82
2023/08/23 09:21:10;;;;;;;36.47;4.47;;;26.10;1.00;;;;;;5023481;28;20960;-82
2023/08/23 09:23:39;;;;;;;32.00;4.33;;;26.10;1.00;;;;;;5031289;28;20560;-83
2023/08/23 09:26:08;;;;;;;32.77;4.70;;;26.10;1.00;;;;;;5019060;28;20424;-83
2023/08/23 09:28:38;;;;;;;29.90;4.07;;;26.20;1.00;;;;;;5029362;28;20490;-80
2023/08/23 09:31:50;;;;;;;34.37;5.03;;;26.30;1.00;;;;;;5032641;28;20850;-80
2023/08/23 09:34:20;;;;;;;37.53;4.33;;;26.50;1.00;;;;;;5022181;28;20821;-81
2023/08/23 09:37:08;;;;;;;34.20;5.17;;;26.50;1.00;;;;;;5035053;28;20490;-80
2023/08/23 09:39:34;;;;;;;35.97;5.50;;;26.70;1.00;;;;;;5023840;28;20410;-80
2023/08/23 09:42:38;;;;;;;34.40;5.70;;;26.70;1.00;;;;;;5020770;28;20492;-80
2023/08/23 09:45:34;;;;;;;33.73;5.63;;;26.70;1.00;;;;;;5034468;28;20518;-82
2023/08/23 09:48:17;;;;;;;31.97;4.50;;;26.60;1.00;;;;;;4961012;28;20438;-82
2023/08/23 09:51:02;;;;;;;36.17;4.70;;;26.80;1.00;;;;;;4967335;28;20495;-82
2023/08/23 09:53:35;;;;;;;34.43;5.47;;;26.90;1.00;;;;;;4966212;28;20544;-82
2023/08/23 09:56:09;;;;;;;32.37;4.10;;;27.00;1.00;;;;;;4946779;29;20839;-83
2023/08/23 10:02:20;;;;;;;32.50;4.83;;;27.10;1.00;;;;;;4966663;28;20480;-82
2023/08/23 10:05:20;;;;;;;33.33;4.70;;;27.40;1.00;;;;;;4948267;28;20539;-83
2023/08/23 10:08:02;;;;;;;32.57;4.50;;;27.40;1.00;;;;;;4942807;28;20502;-82
2023/08/23 10:10:30;;;;;;;32.70;4.80;;;27.50;1.00;;;;;;4957378;28;20464;-83
2023/08/23 10:13:08;;;;;;;33.07;5.10;;;27.60;1.00;;;;;;4945009;28;20511;-82
2023/08/23 10:16:08;;;;;;;32.73;5.00;;;27.70;1.00;;;;;;4952181;29;20552;-82
2023/08/23 10:19:02;;;;;;;36.13;4.70;;;27.70;1.00;;;;;;4960742;28;20430;-82
2023/08/23 10:22:02;;;;;;;40.40;5.37;;;27.50;1.00;;;;;;4954106;28;20456;-82
2023/08/23 10:24:48;;;;;;;32.10;4.63;;;27.70;1.00;;;;;;4989948;28;20498;-82
2023/08/23 10:27:26;;;;;;;34.13;5.00;;;27.70;1.00;;;;;;5024650;28;20772;-82
2023/08/23 10:30:09;;;;;;;35.13;5.03;;;27.90;1.00;;;;;;5023034;28;20463;-82
2023/08/23 10:35:56;;;;;;;39.80;5.70;;;27.80;1.00;;;;;;5025006;28;20429;-83
2023/08/23 10:38:26;;;;;;;41.97;4.43;;;27.70;1.00;;;;;;5020883;28;20413;-82
2023/08/23 10:40:54;;;;;;;58.17;4.90;;;27.80;1.00;;;;;;5020253;28;20223;-83
2023/08/23 10:43:20;;;;;;;30.67;4.30;;;27.90;1.00;;;;;;5031261;28;20492;-79
2023/08/23 10:46:02;;;;;;;33.03;5.10;;;28.20;1.00;;;;;;5033523;28;20420;-78
2023/08/23 10:48:39;;;;;;;39.27;5.60;;;28.30;1.00;;;;;;5033443;28;20511;-79
2023/08/23 10:51:15;;;;;;;36.40;4.97;;;28.20;1.00;;;;;;5014359;28;20402;-79
2023/08/23 10:53:42;;;;;;;32.30;5.33;;;28.30;1.00;;;;;;5021146;28;20899;-79
2023/08/23 10:56:14;;;;;;;30.47;4.00;;;28.40;1.00;;;;;;5017317;28;20428;-79
2023/08/23 10:58:44;;;;;;;30.43;4.43;;;28.40;1.00;;;;;;5033917;28;20423;-83
2023/08/23 11:01:14;;;;;;;29.60;3.80;;;28.50;1.00;;;;;;5028291;28;20921;-84
2023/08/23 11:07:02;;;;;;;28.33;3.40;;;28.50;1.00;;;;;;5014265;28;20395;-84
2023/08/23 11:09:38;;;;;;;31.40;3.90;;;28.80;1.00;;;;;;5027448;28;20813;-78
2023/08/23 11:12:32;;;;;;;32.63;3.70;;;28.90;1.00;;;;;;5030629;28;20894;-78
2023/08/23 11:15:38;;;;;;;30.53;3.50;;;28.90;1.00;;;;;;5023177;28;20421;-84
2023/08/23 11:18:10;;;;;;;33.20;4.43;;;28.90;1.00;;;;;;5020335;28;20413;-84
2023/08/23 11:21:02;;;;;;;36.47;3.77;;;28.90;1.00;;;;;;5018032;28;20498;-84
2023/08/23 11:24:14;;;;;;;29.63;3.50;;;28.90;1.00;;;;;;5025850;28;20421;-83
2023/08/23 11:26:50;;;;;;;43.23;3.43;;;29.00;1.00;;;;;;5029273;28;20520;-83
2023/08/23 11:29:26;;;;;;;30.60;3.50;;;29.10;1.00;;;;;;5032736;28;20407;-78
2023/08/23 11:32:02;;;;;;;28.23;3.10;;;29.10;1.00;;;;;;5031757;28;20840;-79
2023/08/23 11:34:46;;;;;;;34.33;3.07;;;29.20;1.00;;;;;;5032149;28;20809;-79
2023/08/23 11:37:14;;;;;;;31.87;3.80;;;29.30;1.00;;;;;;5015928;28;20411;-79
2023/08/23 11:39:40;;;;;;;31.90;3.93;;;29.10;1.00;;;;;;5025255;28;20414;-79
2023/08/23 11:42:08;;;;;;;32.40;3.30;;;29.10;1.00;;;;;;5027213;28;20842;-79
2023/08/23 11:44:34;;;;;;;38.23;2.97;;;29.10;1.00;;;;;;5015898;28;20685;-84
2023/08/23 11:47:14;;;;;;;31.47;2.97;;;29.00;1.00;;;;;;5032978;28;20453;-84
2023/08/23 11:49:46;;;;;;;34.40;2.90;;;29.10;1.00;;;;;;5017370;28;20178;-84
2023/08/23 11:52:16;;;;;;;37.03;3.20;;;29.10;1.00;;;;;;5017447;28;20423;-84
2023/08/23 11:54:43;;;;;;;36.17;3.30;;;29.40;1.00;;;;;;5026920;28;20961;-84
2023/08/23 11:57:16;;;;;;;32.23;3.03;;;29.50;1.00;;;;;;5016330;28;20426;-84
2023/08/23 11:59:45;;;;;;;44.80;4.77;;;29.60;1.00;;;;;;5035250;28;20449;-78
2023/08/23 12:02:44;;;;;;;34.57;2.97;;;29.70;1.00;;;;;;5017405;28;20781;-79
2023/08/23 12:05:13;;;;;;;28.37;2.73;;;29.70;1.00;;;;;;5025288;28;20507;-79
2023/08/23 12:07:44;;;;;;;28.70;2.90;;;29.70;1.00;;;;;;5027346;28;20417;-79
2023/08/23 12:13:40;;;;;;;34.40;2.93;;;29.90;1.00;;;;;;5026294;28;20464;-79
2023/08/23 12:16:08;;;;;;;34.40;2.97;;;29.90;1.00;;;;;;5017226;28;20483;-79
2023/08/23 12:18:56;;;;;;;31.33;2.93;;;30.00;1.00;;;;;;5017317;28;20605;-79
2023/08/23 12:21:26;;;;;;;28.40;3.03;;;30.00;1.00;;;;;;5017207;28;20455;-78
2023/08/23 12:24:14;;;;;;;28.83;2.90;;;30.10;1.00;;;;;;5019150;28;20455;-79
2023/08/23 12:26:50;;;;;;;29.27;2.90;;;30.20;1.00;;;;;;5036348;28;20422;-79
2023/08/23 12:32:37;;;;;;;29.67;2.67;;;30.20;1.00;;;;;;5027363;28;20427;-85
2023/08/23 12:39:20;;;;;;;28.27;2.80;;;30.30;1.00;;;;;;5029616;28;20187;-85
2023/08/23 12:42:15;;;;;;;33.93;3.37;;;30.50;1.00;;;;;;5021914;28;20423;-84
2023/08/23 12:44:44;;;;;;;28.80;2.90;;;30.50;1.00;;;;;;5033180;28;20451;-84
2023/08/23 12:47:10;;;;;;;28.57;3.03;;;30.40;1.00;;;;;;5027033;28;20843;-85
2023/08/23 12:49:44;;;;;;;28.47;2.97;;;30.40;1.00;;;;;;5034565;28;20431;-84
2023/08/23 12:52:12;;;;;;;28.73;2.83;;;30.50;1.00;;;;;;5029796;28;20943;-84
2023/08/23 12:54:44;;;;;;;31.27;2.50;;;30.50;1.00;;;;;;5020691;28;20962;-85
2023/08/23 12:57:38;;;;;;;28.50;2.73;;;30.50;1.00;;;;;;5029320;28;20858;-85
2023/08/23 13:00:08;;;;;;;29.77;2.60;;;30.70;1.00;;;;;;5023469;28;20419;-85
2023/08/23 13:02:50;;;;;;;30.07;3.00;;;30.70;1.00;;;;;;5020459;28;20804;-85
2023/08/23 13:08:38;;;;;;;28.90;2.90;;;30.60;1.00;;;;;;5032950;28;20469;-85
2023/08/23 13:11:08;;;;;;;29.13;2.67;;;30.60;1.00;;;;;;5022694;28;20431;-85
2023/08/23 13:13:36;;;;;;;29.40;2.73;;;30.50;1.00;;;;;;5033006;28;20454;-85
2023/08/23 13:16:14;;;;;;;33.07;3.20;;;30.60;1.00;;;;;;5028353;28;20939;-85
2023/08/23 13:19:02;;;;;;;28.10;2.67;;;30.50;1.00;;;;;;5014905;28;20430;-85
2023/08/23 13:21:32;;;;;;;33.10;2.97;;;30.50;1.00;;;;;;5020783;28;20856;-85
2023/08/23 13:27:26;;;;;;;29.17;2.80;;;30.70;1.00;;;;;;5027385;28;20418;-85
2023/08/23 13:30:20;;;;;;;27.83;2.60;;;30.70;1.00;;;;;;5024400;28;20438;-85
2023/08/23 13:32:50;;;;;;;32.80;3.10;;;30.60;1.00;;;;;;5036977;28;20435;-79
2023/08/23 13:38:44;;;;;;;27.53;2.40;;;30.50;1.00;;;;;;5026727;28;20954;-79
2023/08/23 13:41:32;;;;;;;27.27;2.70;;;30.60;1.00;;;;;;5021703;28;20414;-80
2023/08/23 13:43:57;;;;;;;26.93;2.30;;;30.80;1.00;;;;;;5022734;28;20478;-80
2023/08/23 13:46:26;;;;;;;29.30;2.83;;;31.10;1.00;;;;;;5020792;28;20451;-80
2023/08/23 13:48:56;;;;;;;31.83;3.20;;;31.20;1.00;;;;;;5023767;28;20264;-79
2023/08/23 13:51:44;;;;;;;28.30;2.47;;;31.20;1.00;;;;;;5020626;28;20412;-80
2023/08/23 13:54:35;;;;;;;30.40;2.90;;;31.20;1.00;;;;;;5031806;28;20462;-79
2023/08/23 13:57:08;;;;;;;28.90;3.00;;;31.30;1.00;;;;;;5025948;28;20497;-79
2023/08/23 14:00:26;;;;;;;29.17;2.60;;;31.40;1.00;;;;;;5026215;28;20438;-79
2023/08/23 14:02:56;;;;;;;31.50;2.63;;;31.30;1.00;;;;;;5019006;28;20586;-86
2023/08/23 14:08:44;;;;;;;26.03;2.20;;;31.70;1.00;;;;;;5033559;28;20402;-88
2023/08/23 14:11:14;;;;;;;26.00;2.30;;;31.70;1.00;;;;;;5024537;28;20423;-89
2023/08/23 14:17:20;;;;;;;26.00;2.10;;;31.50;1.00;;;;;;5032350;28;20429;-80